createdAt,value
2019-03-13T00:00:23.824Z,3.80
2019-03-13T00:02:52.567Z,4.10
2019-03-13T00:05:20.998Z,5.37
2019-03-13T00:07:49.433Z,5.00
2019-03-13T00:10:17.927Z,4.87
2019-03-13T00:12:46.438Z,5.70
2019-03-13T00:15:15.575Z,5.87
2019-03-13T00:17:44.023Z,5.97
2019-03-13T00:20:12.672Z,7.77
2019-03-13T00:22:41.355Z,8.50
2019-03-13T00:25:09.884Z,7.33
2019-03-13T00:27:38.376Z,7.87
2019-03-13T00:30:09.611Z,7.70
2019-03-13T00:32:38.294Z,7.70
2019-03-13T00:35:08.730Z,7.97
2019-03-13T00:37:37.419Z,7.00
2019-03-13T00:40:11.123Z,7.63
2019-03-13T00:42:39.823Z,9.00
2019-03-13T00:45:10.366Z,7.67
2019-03-13T00:47:39.042Z,7.93
2019-03-13T00:50:09.614Z,7.90
2019-03-13T00:52:38.145Z,7.47
2019-03-13T00:55:07.307Z,6.73
2019-03-13T00:57:35.739Z,7.13
2019-03-13T01:00:06.874Z,6.70
2019-03-13T01:02:37.024Z,7.17
2019-03-13T01:05:11.261Z,7.90
2019-03-13T01:07:39.675Z,7.67
2019-03-13T01:10:09.276Z,7.77
2019-03-13T01:12:37.766Z,7.67
2019-03-13T01:15:08.706Z,7.90
2019-03-13T01:17:38.972Z,7.40
2019-03-13T01:20:08.731Z,8.90
2019-03-13T01:22:37.171Z,8.33
2019-03-13T01:25:07.941Z,8.93
2019-03-13T01:27:36.390Z,6.87
2019-03-13T01:30:08.036Z,7.83
2019-03-13T01:32:41.078Z,7.70
2019-03-13T01:35:17.107Z,7.07
2019-03-13T01:37:45.543Z,7.20
2019-03-13T01:40:14.298Z,6.53
2019-03-13T01:42:42.742Z,6.90
2019-03-13T01:45:11.900Z,6.97
2019-03-13T01:47:40.591Z,7.10
2019-03-13T01:50:13.002Z,6.20
2019-03-13T01:52:41.699Z,5.17
2019-03-13T01:55:10.758Z,5.50
2019-03-13T01:57:39.479Z,5.10
2019-03-13T02:00:13.430Z,4.90
2019-03-13T02:02:41.871Z,5.10
2019-03-13T02:05:10.298Z,5.00
2019-03-13T02:07:38.737Z,3.83
2019-03-13T02:10:11.883Z,3.80
2019-03-13T02:12:40.319Z,3.40
2019-03-13T02:15:14.515Z,3.30
2019-03-13T02:17:43.234Z,2.97
2019-03-13T02:20:12.254Z,2.90
2019-03-13T02:22:40.674Z,2.60
2019-03-13T02:25:11.239Z,3.10
2019-03-13T02:27:39.738Z,2.90
2019-03-13T02:30:14.515Z,3.10
2019-03-13T02:32:42.946Z,2.67
2019-03-13T02:35:11.708Z,2.40
2019-03-13T02:37:40.226Z,2.50
2019-03-13T02:40:11.863Z,2.63
2019-03-13T02:42:40.425Z,2.63
2019-03-13T02:45:10.537Z,2.57
2019-03-13T02:47:39.316Z,2.40
2019-03-13T02:50:15.907Z,3.10
2019-03-13T02:52:44.604Z,2.70
2019-03-13T02:55:13.157Z,2.43
2019-03-13T02:57:41.598Z,3.00
2019-03-13T03:00:16.658Z,2.53
2019-03-13T03:02:52.825Z,2.37
2019-03-13T03:05:21.443Z,2.47
2019-03-13T03:07:49.910Z,2.57
2019-03-13T03:10:18.531Z,2.10
2019-03-13T03:12:47.221Z,1.73
2019-03-13T03:15:17.839Z,2.73
2019-03-13T03:17:46.471Z,1.83
2019-03-13T03:20:17.131Z,2.10
2019-03-13T03:22:45.567Z,1.87
2019-03-13T03:25:15.822Z,2.10
2019-03-13T03:27:44.451Z,2.07
2019-03-13T03:30:15.986Z,2.13
2019-03-13T03:32:44.432Z,1.63
2019-03-13T03:35:12.931Z,1.80
2019-03-13T03:37:41.477Z,2.07
2019-03-13T03:40:15.566Z,1.77
2019-03-13T03:42:44.092Z,1.93
2019-03-13T03:45:12.747Z,1.80
2019-03-13T03:47:41.365Z,1.80
2019-03-13T03:50:14.802Z,1.77
2019-03-13T03:52:43.265Z,2.67
2019-03-13T03:55:12.877Z,2.13
2019-03-13T03:57:41.831Z,2.90
2019-03-13T04:00:12.494Z,2.23
2019-03-13T04:02:40.922Z,2.30
2019-03-13T04:05:10.447Z,2.70
2019-03-13T04:07:39.171Z,2.60
2019-03-13T04:10:10.244Z,2.13
2019-03-13T04:12:38.773Z,2.10
2019-03-13T04:15:10.160Z,2.20
2019-03-13T04:17:38.604Z,1.90
2019-03-13T04:20:09.724Z,2.40
2019-03-13T04:22:38.233Z,2.97
2019-03-13T04:25:27.179Z,2.10
2019-03-13T04:27:55.884Z,2.27
2019-03-13T04:30:24.546Z,2.07
2019-03-13T04:32:52.989Z,2.37
2019-03-13T04:35:21.675Z,2.20
2019-03-13T04:37:50.117Z,2.30
2019-03-13T04:40:18.550Z,2.27
2019-03-13T04:42:47.247Z,2.50
2019-03-13T04:45:15.671Z,2.73
2019-03-13T04:47:44.396Z,2.13
2019-03-13T04:50:16.454Z,2.40
2019-03-13T04:52:44.955Z,2.60
2019-03-13T04:55:16.707Z,3.03
2019-03-13T04:57:45.452Z,2.33
2019-03-13T05:00:17.846Z,2.17
2019-03-13T05:02:46.435Z,2.60
2019-03-13T05:05:37.338Z,2.33
2019-03-13T05:08:05.775Z,2.70
2019-03-13T05:10:34.454Z,2.50
2019-03-13T05:13:03.098Z,2.30
2019-03-13T05:15:31.862Z,2.17
2019-03-13T05:18:00.575Z,2.03
2019-03-13T05:20:29.026Z,2.30
2019-03-13T05:22:57.476Z,2.33
2019-03-13T05:25:25.996Z,2.23
2019-03-13T05:27:54.495Z,1.90
2019-03-13T05:30:23.179Z,2.17
2019-03-13T05:32:51.889Z,2.70
2019-03-13T05:35:20.651Z,1.97
2019-03-13T05:37:49.086Z,2.30
2019-03-13T05:40:17.771Z,2.30
2019-03-13T05:42:46.207Z,1.97
2019-03-13T05:45:14.707Z,1.90
2019-03-13T05:47:43.136Z,2.70
2019-03-13T05:50:12.124Z,1.83
2019-03-13T05:52:40.823Z,2.80
2019-03-13T05:55:09.639Z,2.17
2019-03-13T05:57:38.082Z,2.30
2019-03-13T06:00:11.779Z,2.67
2019-03-13T06:02:40.547Z,2.00
2019-03-13T06:05:09.478Z,2.40
2019-03-13T06:07:37.932Z,2.47
2019-03-13T06:10:11.549Z,2.10
2019-03-13T06:12:40.023Z,1.90
2019-03-13T06:15:11.746Z,2.80
2019-03-13T06:17:40.159Z,2.30
2019-03-13T06:20:14.624Z,2.90
2019-03-13T06:22:43.060Z,2.30
2019-03-13T06:25:12.232Z,2.33
2019-03-13T06:27:40.735Z,2.63
2019-03-13T06:30:14.270Z,2.97
2019-03-13T06:32:42.693Z,2.57
2019-03-13T06:35:11.946Z,3.33
2019-03-13T06:37:40.373Z,3.30
2019-03-13T06:40:12.037Z,2.40
2019-03-13T06:42:40.509Z,3.27
2019-03-13T06:45:14.637Z,2.60
2019-03-13T06:47:43.074Z,3.23
2019-03-13T06:50:19.919Z,2.73
2019-03-13T06:52:48.627Z,2.70
2019-03-13T06:55:17.070Z,2.93
2019-03-13T06:57:45.755Z,2.57
2019-03-13T07:00:26.714Z,2.70
2019-03-13T07:03:12.843Z,2.33
2019-03-13T07:05:46.251Z,2.50
2019-03-13T07:08:32.368Z,2.90
2019-03-13T07:11:17.456Z,2.70
2019-03-13T07:13:50.482Z,2.00
2019-03-13T07:16:29.329Z,3.10
2019-03-13T07:18:59.723Z,3.40
2019-03-13T07:21:45.068Z,3.13
2019-03-13T07:24:15.141Z,3.17
2019-03-13T07:26:47.891Z,2.70
2019-03-13T07:29:18.040Z,2.60
2019-03-13T07:32:06.100Z,3.30
2019-03-13T07:34:43.597Z,2.50
2019-03-13T07:37:13.984Z,3.00
2019-03-13T07:39:47.251Z,2.43
2019-03-13T07:42:17.323Z,2.97
2019-03-13T07:44:47.399Z,2.50
2019-03-13T07:47:23.407Z,2.47
2019-03-13T07:49:53.752Z,3.03
2019-03-13T07:52:23.830Z,2.77
2019-03-13T07:54:56.849Z,2.50
2019-03-13T07:57:41.731Z,2.50
2019-03-13T08:00:13.658Z,2.53
2019-03-13T08:02:49.795Z,2.60
2019-03-13T08:05:20.146Z,2.53
2019-03-13T08:08:05.271Z,2.73
2019-03-13T08:10:35.355Z,2.87
2019-03-13T08:13:23.522Z,3.00
2019-03-13T08:15:59.342Z,2.30
2019-03-13T08:18:45.443Z,2.80
2019-03-13T08:21:31.831Z,3.07
2019-03-13T08:24:01.964Z,3.00
2019-03-13T08:26:32.054Z,2.10
2019-03-13T08:29:11.211Z,2.10
2019-03-13T08:31:43.809Z,2.90
2019-03-13T08:34:30.203Z,2.40
2019-03-13T08:37:06.524Z,2.43
2019-03-13T08:39:39.819Z,2.80
2019-03-13T08:42:25.700Z,2.87
2019-03-13T08:45:01.651Z,2.80
2019-03-13T08:47:47.711Z,4.03
2019-03-13T08:50:17.791Z,2.70
2019-03-13T08:52:50.935Z,2.80
2019-03-13T08:55:36.202Z,2.80
2019-03-13T08:58:22.309Z,2.77
2019-03-13T09:00:58.383Z,3.00
2019-03-13T09:03:31.532Z,3.27
2019-03-13T09:06:04.373Z,3.27
2019-03-13T09:08:52.104Z,3.13
2019-03-13T09:11:22.187Z,3.73
2019-03-13T09:13:55.312Z,3.30
2019-03-13T09:16:33.959Z,2.50
2019-03-13T09:19:16.182Z,2.53
2019-03-13T09:21:58.530Z,2.80
2019-03-13T09:24:28.587Z,2.60
2019-03-13T09:27:01.372Z,2.83
2019-03-13T09:29:34.750Z,2.70
2019-03-13T09:32:04.983Z,3.57
2019-03-13T09:34:35.304Z,2.73
2019-03-13T09:37:14.161Z,2.67
2019-03-13T09:39:49.875Z,2.70
2019-03-13T09:42:28.602Z,2.20
2019-03-13T09:45:14.995Z,2.90
2019-03-13T09:47:51.383Z,2.90
2019-03-13T09:50:21.519Z,2.20
2019-03-13T09:53:03.205Z,2.70
2019-03-13T09:55:33.602Z,2.93
2019-03-13T09:58:21.729Z,2.80
2019-03-13T10:00:54.490Z,3.10
2019-03-13T10:03:24.563Z,3.63
2019-03-13T10:06:00.483Z,3.10
2019-03-13T10:08:46.812Z,3.93
2019-03-13T10:11:17.139Z,3.00
2019-03-13T10:14:03.056Z,3.27
2019-03-13T10:16:38.863Z,3.30
2019-03-13T10:19:11.676Z,3.77
2019-03-13T10:21:41.814Z,3.77
2019-03-13T10:24:16.106Z,3.67
2019-03-13T10:26:46.223Z,3.80
2019-03-13T10:29:16.545Z,3.40
2019-03-13T10:31:49.578Z,4.20
2019-03-13T10:34:31.163Z,3.97
2019-03-13T10:37:03.907Z,3.97
2019-03-13T10:39:49.034Z,2.83
2019-03-13T10:42:27.682Z,3.27
2019-03-13T10:45:00.504Z,3.63
2019-03-13T10:47:30.597Z,2.93
2019-03-13T10:50:06.647Z,3.00
2019-03-13T10:52:42.578Z,3.60
2019-03-13T10:55:30.667Z,3.23
2019-03-13T10:58:06.863Z,3.10
2019-03-13T11:00:37.190Z,2.90
2019-03-13T11:03:07.332Z,3.20
2019-03-13T11:05:53.359Z,3.30
2019-03-13T11:08:35.274Z,3.30
2019-03-13T11:11:11.111Z,3.23
2019-03-13T11:13:47.194Z,2.73
2019-03-13T11:16:33.651Z,2.93
2019-03-13T11:19:18.775Z,3.10
2019-03-13T11:21:48.855Z,3.00
2019-03-13T11:24:19.171Z,2.87
2019-03-13T11:26:54.939Z,2.83
2019-03-13T11:29:24.999Z,2.33
2019-03-13T11:32:13.160Z,2.60
2019-03-13T11:34:46.250Z,3.10
2019-03-13T11:37:19.115Z,2.40
2019-03-13T11:40:04.048Z,2.53
2019-03-13T11:42:37.197Z,2.10
2019-03-13T11:45:26.251Z,2.77
2019-03-13T11:47:59.244Z,2.47
2019-03-13T11:50:45.639Z,3.20
2019-03-13T11:53:21.486Z,2.90
2019-03-13T11:55:51.602Z,2.33
2019-03-13T11:58:21.746Z,2.63
2019-03-13T12:01:08.439Z,3.03
2019-03-13T12:03:41.359Z,2.50
2019-03-13T12:06:20.208Z,3.30
2019-03-13T12:09:06.387Z,3.47
2019-03-13T12:11:52.690Z,3.33
2019-03-13T12:14:25.171Z,3.50
2019-03-13T12:17:04.484Z,3.70
2019-03-13T12:19:34.549Z,3.77
2019-03-13T12:22:04.895Z,3.90
2019-03-13T12:24:52.584Z,3.43
2019-03-13T12:27:28.192Z,3.50
2019-03-13T12:30:09.832Z,4.23
2019-03-13T12:32:42.583Z,4.13
2019-03-13T12:35:28.972Z,3.60
2019-03-13T12:38:01.710Z,3.70
2019-03-13T12:40:34.831Z,3.60
2019-03-13T12:43:10.903Z,3.53
2019-03-13T12:45:41.303Z,3.80
2019-03-13T12:48:27.566Z,4.70
2019-03-13T12:50:57.630Z,4.93
2019-03-13T12:53:36.194Z,4.30
2019-03-13T12:56:06.269Z,4.57
2019-03-13T12:58:42.173Z,4.43
2019-03-13T13:01:12.515Z,4.17
2019-03-13T13:03:45.315Z,4.00
2019-03-13T13:06:21.127Z,3.43
2019-03-13T13:08:51.481Z,4.03
2019-03-13T13:11:21.652Z,3.77
2019-03-13T13:14:00.635Z,2.33
2019-03-13T13:16:36.633Z,2.30
2019-03-13T13:19:05.146Z,2.50
2019-03-13T13:21:33.566Z,2.43
2019-03-13T13:24:02.003Z,3.33
2019-03-13T13:26:30.426Z,4.40
2019-03-13T13:28:59.211Z,5.40
2019-03-13T13:31:27.990Z,5.80
2019-03-13T13:33:56.507Z,6.57
2019-03-13T13:36:26.873Z,5.50
2019-03-13T13:38:55.378Z,4.50
2019-03-13T13:41:23.815Z,5.10
2019-03-13T13:43:52.544Z,5.00
2019-03-13T13:46:26.193Z,4.70
2019-03-13T13:48:54.675Z,3.97
2019-03-13T13:51:23.138Z,4.53
2019-03-13T13:53:51.607Z,4.60
2019-03-13T13:56:20.102Z,4.83
2019-03-13T13:58:49.051Z,5.10
2019-03-13T14:01:17.493Z,5.30
2019-03-13T14:03:45.940Z,4.37
2019-03-13T14:06:14.382Z,3.13
2019-03-13T14:08:43.079Z,3.20
2019-03-13T14:11:11.506Z,3.07
2019-03-13T14:13:40.219Z,2.33
2019-03-13T14:16:08.927Z,2.73
2019-03-13T14:18:37.631Z,2.23
2019-03-13T14:21:06.156Z,2.47
2019-03-13T14:23:34.699Z,2.50
2019-03-13T14:26:03.142Z,2.43
2019-03-13T14:28:31.667Z,2.43
2019-03-13T14:31:00.102Z,2.90
2019-03-13T14:33:28.710Z,2.67
2019-03-13T14:35:57.167Z,2.77
2019-03-13T14:38:25.925Z,3.47
2019-03-13T14:40:54.342Z,2.97
2019-03-13T14:43:23.155Z,3.00
2019-03-13T14:45:51.640Z,2.60
2019-03-13T14:48:20.147Z,2.97
2019-03-13T14:50:48.819Z,3.30
2019-03-13T14:53:17.263Z,3.00
2019-03-13T14:55:45.746Z,3.07
2019-03-13T14:58:14.185Z,2.40
2019-03-13T15:00:42.858Z,2.03
2019-03-13T15:03:11.290Z,2.40
2019-03-13T15:05:39.976Z,2.80
2019-03-13T15:08:08.419Z,2.73
2019-03-13T15:10:36.843Z,2.90
2019-03-13T15:13:05.316Z,3.00
2019-03-13T15:15:34.039Z,3.30
2019-03-13T15:18:02.463Z,3.83
2019-03-13T15:20:30.990Z,3.70
2019-03-13T15:22:59.426Z,3.30
2019-03-13T15:25:27.870Z,4.57
2019-03-13T15:27:56.280Z,3.50
2019-03-13T15:30:32.394Z,3.70
2019-03-13T15:33:00.826Z,3.03
2019-03-13T15:35:29.267Z,2.53
2019-03-13T15:37:57.758Z,2.70
2019-03-13T15:40:26.198Z,2.80
2019-03-13T15:42:54.622Z,2.80
2019-03-13T15:45:25.768Z,2.90
2019-03-13T15:47:54.279Z,2.80
2019-03-13T15:50:22.774Z,2.60
2019-03-13T15:52:51.455Z,2.50
2019-03-13T15:55:20.423Z,2.37
2019-03-13T15:57:48.922Z,2.63
2019-03-13T16:00:19.502Z,2.50
2019-03-13T16:02:47.936Z,2.00
2019-03-13T16:05:16.699Z,2.87
2019-03-13T16:07:45.119Z,2.30
2019-03-13T16:10:18.654Z,2.07
2019-03-13T16:12:47.175Z,1.80
2019-03-13T16:15:28.058Z,2.30
2019-03-13T16:17:56.826Z,2.10
2019-03-13T16:20:25.319Z,2.20
2019-03-13T16:23:03.323Z,1.73
2019-03-13T16:25:31.832Z,1.80
2019-03-13T16:28:00.333Z,2.17
2019-03-13T16:30:30.903Z,1.90
2019-03-13T16:32:59.327Z,2.30
2019-03-13T16:35:27.850Z,1.87
2019-03-13T16:37:56.269Z,2.60
2019-03-13T16:40:24.717Z,1.90
2019-03-13T16:42:53.408Z,2.03
2019-03-13T16:45:22.782Z,2.50
2019-03-13T16:47:51.274Z,2.93
2019-03-13T16:50:38.692Z,2.77
2019-03-13T16:53:07.210Z,2.40
2019-03-13T16:55:35.700Z,2.83
2019-03-13T16:58:04.264Z,3.00
2019-03-13T17:00:34.121Z,2.70
2019-03-13T17:03:02.548Z,2.73
2019-03-13T17:05:31.114Z,2.87
2019-03-13T17:07:59.738Z,2.33
2019-03-13T17:10:29.950Z,2.80
2019-03-13T17:12:58.386Z,3.40
2019-03-13T17:15:27.371Z,2.03
2019-03-13T17:17:55.803Z,3.00
2019-03-13T17:20:36.476Z,2.80
2019-03-13T17:23:05.031Z,3.00
2019-03-13T17:25:33.491Z,2.90
2019-03-13T17:28:02.265Z,2.40
2019-03-13T17:30:31.436Z,2.83
2019-03-13T17:33:00.099Z,2.90
2019-03-13T17:35:28.936Z,2.60
2019-03-13T17:37:57.359Z,2.80
2019-03-13T17:40:26.936Z,2.33
2019-03-13T17:42:55.696Z,2.30
2019-03-13T17:45:24.791Z,3.00
2019-03-13T17:47:53.750Z,2.13
2019-03-13T17:50:25.582Z,2.47
2019-03-13T17:52:54.139Z,3.03
2019-03-13T17:55:24.476Z,2.77
2019-03-13T17:57:52.907Z,2.37
2019-03-13T18:00:47.862Z,3.30
2019-03-13T18:03:16.514Z,2.80
2019-03-13T18:05:45.028Z,3.77
2019-03-13T18:08:13.455Z,3.80
2019-03-13T18:10:41.917Z,2.90
2019-03-13T18:13:10.652Z,3.77
2019-03-13T18:15:39.158Z,3.50
2019-03-13T18:18:07.647Z,4.37
2019-03-13T18:20:36.252Z,3.60
2019-03-13T18:23:05.131Z,4.47
2019-03-13T18:25:33.711Z,3.90
2019-03-13T18:28:02.465Z,4.37
2019-03-13T18:30:32.749Z,3.87
2019-03-13T18:33:01.161Z,3.70
2019-03-13T18:35:29.678Z,3.87
2019-03-13T18:37:58.368Z,3.87
2019-03-13T18:40:26.799Z,3.10
2019-03-13T18:42:55.293Z,4.10
2019-03-13T18:45:31.883Z,3.70
2019-03-13T18:48:00.444Z,3.30
2019-03-13T18:50:29.217Z,2.60
2019-03-13T18:52:58.050Z,2.70
2019-03-13T18:55:34.557Z,3.53
2019-03-13T18:58:03.314Z,3.17
2019-03-13T19:00:33.878Z,3.13
2019-03-13T19:03:02.397Z,2.63
2019-03-13T19:05:35.942Z,3.53
2019-03-13T19:08:04.742Z,3.17
2019-03-13T19:10:33.584Z,2.97
2019-03-13T19:13:02.387Z,2.77
2019-03-13T19:15:30.970Z,1.97
2019-03-13T19:18:01.040Z,2.47
2019-03-13T19:20:30.335Z,2.27
2019-03-13T19:22:58.853Z,2.60
2019-03-13T19:25:27.352Z,3.43
2019-03-13T19:27:55.935Z,2.90
2019-03-13T19:30:26.668Z,2.63
2019-03-13T19:32:55.239Z,2.50
2019-03-13T19:35:23.732Z,3.20
2019-03-13T19:37:52.305Z,2.97
2019-03-13T19:40:21.584Z,2.50
2019-03-13T19:42:50.355Z,2.43
2019-03-13T19:45:27.719Z,3.60
2019-03-13T19:47:56.419Z,3.03
2019-03-13T19:50:27.911Z,3.00
2019-03-13T19:52:54.996Z,3.87
2019-03-13T19:55:23.464Z,3.10
2019-03-13T19:57:51.955Z,2.90
2019-03-13T20:00:24.271Z,2.87
2019-03-13T20:03:00.005Z,2.50
2019-03-13T20:05:23.991Z,3.23
2019-03-13T20:07:52.550Z,2.30
2019-03-13T20:10:25.635Z,2.20
2019-03-13T20:12:54.207Z,2.93
2019-03-13T20:15:27.478Z,3.00
2019-03-13T20:17:56.130Z,3.20
2019-03-13T20:20:24.927Z,3.00
2019-03-13T20:23:04.922Z,3.07
2019-03-13T20:25:33.485Z,2.87
2019-03-13T20:28:01.922Z,3.20
2019-03-13T20:30:30.431Z,3.23
2019-03-13T20:32:58.968Z,2.70
2019-03-13T20:35:27.656Z,3.30
2019-03-13T20:37:56.176Z,2.90
2019-03-13T20:40:25.886Z,2.90
2019-03-13T20:42:55.735Z,2.90
2019-03-13T20:45:30.405Z,3.33
2019-03-13T20:47:58.917Z,2.70
2019-03-13T20:50:36.710Z,2.90
2019-03-13T20:52:57.572Z,2.70
2019-03-13T20:55:26.281Z,3.23
2019-03-13T20:57:54.719Z,3.17
2019-03-13T21:00:24.110Z,2.63
2019-03-13T21:02:56.549Z,2.50
2019-03-13T21:05:25.863Z,3.07
2019-03-13T21:07:55.019Z,2.80
2019-03-13T21:10:23.734Z,2.50
2019-03-13T21:12:52.413Z,2.17
2019-03-13T21:15:24.161Z,2.17
2019-03-13T21:17:52.675Z,2.50
2019-03-13T21:20:21.722Z,2.30
2019-03-13T21:22:50.452Z,2.60
2019-03-13T21:25:21.931Z,2.83
2019-03-13T21:27:50.454Z,2.70
2019-03-13T21:30:20.833Z,2.80
2019-03-13T21:32:49.271Z,3.93
2019-03-13T21:35:17.767Z,2.93
2019-03-13T21:37:46.238Z,3.67
2019-03-13T21:40:19.901Z,2.50
2019-03-13T21:42:48.616Z,3.07
2019-03-13T21:45:22.523Z,3.30
2019-03-13T21:47:47.435Z,3.37
2019-03-13T21:50:18.095Z,2.83
2019-03-13T21:52:46.603Z,2.80
2019-03-13T21:55:16.080Z,3.17
2019-03-13T21:57:44.551Z,2.90
2019-03-13T22:00:18.347Z,2.60
2019-03-13T22:02:46.797Z,3.33
2019-03-13T22:05:24.969Z,3.20
2019-03-13T22:07:46.123Z,3.43
2019-03-13T22:10:15.957Z,3.00
2019-03-13T22:12:44.557Z,2.83
2019-03-13T22:15:18.148Z,3.10
2019-03-13T22:17:46.669Z,2.70
2019-03-13T22:20:16.432Z,2.53
2019-03-13T22:22:45.189Z,2.97
2019-03-13T22:25:15.182Z,2.90
2019-03-13T22:27:43.681Z,2.93
2019-03-13T22:30:17.774Z,3.10
2019-03-13T22:32:46.503Z,2.73
2019-03-13T22:35:15.023Z,2.73
2019-03-13T22:37:43.550Z,2.40
2019-03-13T22:40:14.139Z,2.50
2019-03-13T22:42:42.965Z,2.80
2019-03-13T22:45:13.811Z,3.00
2019-03-13T22:47:43.280Z,2.30
2019-03-13T22:50:15.251Z,2.60
2019-03-13T22:52:43.683Z,2.27
2019-03-13T22:55:12.496Z,2.30
2019-03-13T22:57:40.938Z,2.63
2019-03-13T23:00:26.192Z,2.43
2019-03-13T23:02:54.696Z,2.77
2019-03-13T23:05:23.990Z,2.67
2019-03-13T23:07:52.408Z,2.73
2019-03-13T23:10:31.971Z,3.17
2019-03-13T23:13:00.478Z,3.17
2019-03-13T23:15:29.007Z,2.53
2019-03-13T23:17:57.431Z,2.17
2019-03-13T23:20:25.867Z,2.03
2019-03-13T23:22:54.298Z,2.00
2019-03-13T23:25:22.748Z,2.00
2019-03-13T23:27:51.447Z,2.73
2019-03-13T23:30:19.941Z,2.17
2019-03-13T23:32:48.441Z,2.17
2019-03-13T23:35:16.871Z,2.07
2019-03-13T23:37:45.326Z,2.80
2019-03-13T23:40:14.202Z,2.20
2019-03-13T23:42:42.639Z,1.90
2019-03-13T23:45:11.459Z,2.97
2019-03-13T23:47:39.943Z,2.50
2019-03-13T23:50:10.237Z,2.53
2019-03-13T23:52:38.731Z,2.17
2019-03-13T23:55:07.739Z,2.30
2019-03-13T23:57:36.223Z,2.87
